Terminal Aerodrome Forecast
Issued by NWS Twin Cities, MN

Home | Current Version | Previous Version | Text Only | Print | Product List | Glossary On
Versions: 1 2 3 4 5 6 7 8 9 10 11 12 13 14 15 16 17 18 19
000
FTUS43 KMPX 191000 AAA
TAFEAU
TAF AMD
KEAU 191027Z 1910/2006 16007KT P6SM SCT100 BKN250
     FM191400 17014G20KT P6SM SCT008 BKN120
     FM191700 18018G26KT P6SM VCSH SCT025 OVC035
     FM200000 19015KT P6SM VCTS BKN025CB OVC045=

USA.gov is the U.S. government's official web portal to all federal, state and local government web resources and services.